createdAt,value
2022-12-18T00:01:35.103Z,16.45
2022-12-18T00:04:30.543Z,16.40
2022-12-18T00:07:17.394Z,16.36
2022-12-18T00:10:11.737Z,16.40
2022-12-18T00:13:05.180Z,16.39
2022-12-18T00:16:01.523Z,16.37
2022-12-18T00:18:50.317Z,16.31
2022-12-18T00:21:43.502Z,16.30
2022-12-18T00:24:43.529Z,16.38
2022-12-18T00:27:36.536Z,16.39
2022-12-18T00:30:23.616Z,16.30
2022-12-18T00:33:16.582Z,16.39
2022-12-18T00:36:05.471Z,16.33
2022-12-18T00:39:00.564Z,16.29
2022-12-18T00:42:12.512Z,16.23
2022-12-18T00:44:59.996Z,16.30
2022-12-18T00:47:53.580Z,16.28
2022-12-18T00:50:40.561Z,16.31
2022-12-18T00:53:33.567Z,16.30
2022-12-18T00:56:23.818Z,16.30
2022-12-18T00:59:17.529Z,16.29
2022-12-18T01:02:10.585Z,16.25
2022-12-18T01:04:57.461Z,16.26
2022-12-18T01:07:50.544Z,16.23
2022-12-18T01:10:37.421Z,16.29
2022-12-18T01:13:30.522Z,16.25
2022-12-18T01:16:25.591Z,16.30
2022-12-18T01:19:18.599Z,16.32
2022-12-18T01:22:05.421Z,16.27
2022-12-18T01:25:05.722Z,16.29
2022-12-18T01:27:52.719Z,16.25
2022-12-18T01:30:45.519Z,16.28
2022-12-18T01:33:32.359Z,16.23
2022-12-18T01:36:28.625Z,16.23
2022-12-18T01:39:16.266Z,16.26
2022-12-18T01:42:20.595Z,16.26
2022-12-18T01:45:13.086Z,16.26
2022-12-18T01:48:09.536Z,16.23
2022-12-18T01:50:56.884Z,16.25
2022-12-18T01:53:51.566Z,16.21
2022-12-18T01:56:38.394Z,16.20
2022-12-18T01:59:31.559Z,16.14
2022-12-18T02:02:18.946Z,16.19
2022-12-18T02:05:12.567Z,16.21
2022-12-18T02:08:11.525Z,16.26
2022-12-18T02:11:16.557Z,16.19
2022-12-18T02:14:24.565Z,16.26
2022-12-18T02:17:27.621Z,16.20
2022-12-18T02:20:42.613Z,16.19
2022-12-18T02:24:01.585Z,16.20
2022-12-18T02:26:58.603Z,16.19
2022-12-18T02:29:57.628Z,16.15
2022-12-18T02:32:56.609Z,16.18
2022-12-18T02:35:52.595Z,16.19
2022-12-18T02:38:53.596Z,16.19
2022-12-18T02:41:47.584Z,16.15
2022-12-18T02:44:50.369Z,16.10
2022-12-18T02:47:49.652Z,16.12
2022-12-18T02:50:42.629Z,16.08
2022-12-18T02:53:47.641Z,16.12
2022-12-18T02:56:53.612Z,16.18
2022-12-18T02:59:57.588Z,16.18
2022-12-18T03:03:04.713Z,16.20
2022-12-18T03:06:05.555Z,16.19
2022-12-18T03:09:05.656Z,16.19
2022-12-18T03:12:26.179Z,16.18
2022-12-18T03:15:26.599Z,16.15
2022-12-18T03:18:21.696Z,16.14
2022-12-18T03:21:17.545Z,16.11
2022-12-18T03:24:15.672Z,16.10
2022-12-18T03:27:14.565Z,16.08
2022-12-18T03:30:15.602Z,16.10
2022-12-18T03:33:25.084Z,16.08
2022-12-18T03:36:18.611Z,16.12
2022-12-18T03:39:11.722Z,16.06
2022-12-18T03:42:23.664Z,16.04
2022-12-18T03:45:34.665Z,16.10
2022-12-18T03:48:35.659Z,16.10
2022-12-18T03:51:40.650Z,16.13
2022-12-18T03:54:35.666Z,16.14
2022-12-18T03:57:33.626Z,16.13
2022-12-18T04:00:21.590Z,16.14
2022-12-18T04:03:17.672Z,16.09
2022-12-18T04:06:06.405Z,16.05
2022-12-18T04:09:00.685Z,16.04
2022-12-18T04:11:48.501Z,16.08
2022-12-18T04:14:42.670Z,16.02
2022-12-18T04:17:29.475Z,16.08
2022-12-18T04:20:23.687Z,16.08
2022-12-18T04:23:10.515Z,16.07
2022-12-18T04:26:03.611Z,16.00
2022-12-18T04:28:56.717Z,16.05
2022-12-18T04:31:49.681Z,15.99
2022-12-18T04:34:42.641Z,15.97
2022-12-18T04:37:35.634Z,15.97
2022-12-18T04:40:22.456Z,16.03
2022-12-18T04:43:15.750Z,15.99
2022-12-18T04:46:14.688Z,16.08
2022-12-18T04:49:01.470Z,16.10
2022-12-18T04:51:54.688Z,16.10
2022-12-18T04:54:42.178Z,16.05
2022-12-18T04:57:35.645Z,16.04
2022-12-18T05:00:23.079Z,16.06
2022-12-18T05:03:16.693Z,16.05
2022-12-18T05:06:04.908Z,15.98
2022-12-18T05:08:58.667Z,16.03
2022-12-18T05:11:45.401Z,16.04
2022-12-18T05:14:39.682Z,16.04
2022-12-18T05:17:26.470Z,16.01
2022-12-18T05:20:20.711Z,16.02
2022-12-18T05:23:13.711Z,16.01
2022-12-18T05:26:15.723Z,15.99
2022-12-18T05:29:15.680Z,15.94
2022-12-18T05:32:02.425Z,15.83
2022-12-18T05:34:55.665Z,16.00
2022-12-18T05:37:43.395Z,15.98
2022-12-18T05:40:36.713Z,16.06
2022-12-18T05:43:27.022Z,16.04
2022-12-18T05:46:22.773Z,16.02
2022-12-18T05:49:10.217Z,16.04
2022-12-18T05:52:03.744Z,16.00
2022-12-18T05:54:50.537Z,15.99
2022-12-18T05:57:43.719Z,15.98
2022-12-18T06:00:31.473Z,15.99
2022-12-18T06:03:29.270Z,16.00
2022-12-18T06:06:33.701Z,15.98
2022-12-18T06:09:20.606Z,15.94
2022-12-18T06:12:15.065Z,15.98
2022-12-18T06:15:01.914Z,15.95
2022-12-18T06:17:54.713Z,15.94
2022-12-18T06:20:42.462Z,15.95
2022-12-18T06:23:35.725Z,15.95
2022-12-18T06:26:29.805Z,15.91
2022-12-18T06:29:22.717Z,15.98
2022-12-18T06:32:09.616Z,15.95
2022-12-18T06:35:02.749Z,16.00
2022-12-18T06:37:55.749Z,16.01
2022-12-18T06:40:48.755Z,16.01
2022-12-18T06:43:42.222Z,15.99
2022-12-18T06:46:35.749Z,15.97
2022-12-18T06:49:30.606Z,15.96
2022-12-18T06:52:17.814Z,15.94
2022-12-18T06:55:12.713Z,15.95
2022-12-18T06:58:05.777Z,15.96
2022-12-18T07:00:59.746Z,15.94
2022-12-18T07:03:46.619Z,15.88
2022-12-18T07:06:39.716Z,15.93
2022-12-18T07:09:32.730Z,15.87
2022-12-18T07:12:25.722Z,15.89
2022-12-18T07:15:12.762Z,15.88
2022-12-18T07:18:05.770Z,15.86
2022-12-18T07:20:52.549Z,15.88
2022-12-18T07:23:46.841Z,15.94
2022-12-18T07:26:46.753Z,15.91
2022-12-18T07:29:39.792Z,15.96
2022-12-18T07:32:32.760Z,15.98
2022-12-18T07:35:24.755Z,15.97
2022-12-18T07:38:18.776Z,15.99
2022-12-18T07:41:13.973Z,15.99
2022-12-18T07:43:48.745Z,15.97
2022-12-18T07:46:36.577Z,15.95
2022-12-18T07:49:29.826Z,15.97
2022-12-18T07:52:25.931Z,16.05
2022-12-18T07:55:19.788Z,16.09
2022-12-18T07:58:06.779Z,16.25
2022-12-18T08:01:00.825Z,16.37
2022-12-18T08:03:53.813Z,16.43
2022-12-18T08:06:48.208Z,16.41
2022-12-18T08:09:35.401Z,16.43
2022-12-18T08:12:28.777Z,16.46
2022-12-18T08:15:15.953Z,16.50
2022-12-18T08:18:14.120Z,16.50
2022-12-18T08:21:37.805Z,16.57
2022-12-18T08:24:30.867Z,16.60
2022-12-18T08:27:30.848Z,16.61
2022-12-18T08:30:24.933Z,16.61
2022-12-18T08:33:17.776Z,16.68
2022-12-18T08:36:17.285Z,16.73
2022-12-18T08:39:12.562Z,16.88
2022-12-18T08:42:18.514Z,16.88
2022-12-18T08:45:12.813Z,16.89
2022-12-18T08:47:59.663Z,16.86
2022-12-18T08:51:07.057Z,16.98
2022-12-18T08:53:54.186Z,16.95
2022-12-18T08:56:47.823Z,16.91
2022-12-18T08:59:40.809Z,16.96
2022-12-18T09:02:27.901Z,16.92
2022-12-18T09:05:21.814Z,16.91
2022-12-18T09:08:09.241Z,16.88
2022-12-18T09:11:02.824Z,16.82
2022-12-18T09:13:49.937Z,16.89
2022-12-18T09:16:43.892Z,16.87
2022-12-18T09:19:37.817Z,16.94
2022-12-18T09:22:24.674Z,16.98
2022-12-18T09:25:18.810Z,17.12
2022-12-18T09:28:26.803Z,17.16
2022-12-18T09:31:14.509Z,17.15
2022-12-18T09:34:07.866Z,17.19
2022-12-18T09:37:00.884Z,17.22
2022-12-18T09:39:53.935Z,17.23
2022-12-18T09:42:41.009Z,17.17
2022-12-18T09:45:35.938Z,17.24
2022-12-18T09:48:35.816Z,17.22
2022-12-18T09:51:41.870Z,17.18
2022-12-18T09:54:45.887Z,17.16
2022-12-18T09:57:38.270Z,17.14
2022-12-18T10:00:32.892Z,17.14
2022-12-18T10:03:19.802Z,17.15
2022-12-18T10:06:22.881Z,17.14
2022-12-18T10:09:38.483Z,17.12
2022-12-18T10:13:02.516Z,17.16
2022-12-18T10:16:23.950Z,17.22
2022-12-18T10:19:28.966Z,17.15
2022-12-18T10:22:40.845Z,17.15
2022-12-18T10:25:45.925Z,17.16
2022-12-18T10:28:47.877Z,17.13
2022-12-18T10:31:34.811Z,17.19
2022-12-18T10:34:27.921Z,17.21
2022-12-18T10:37:18.634Z,17.19
2022-12-18T10:40:22.660Z,17.27
2022-12-18T10:43:14.443Z,17.26
2022-12-18T10:46:25.382Z,17.42
2022-12-18T10:49:35.860Z,17.42
2022-12-18T10:52:26.159Z,17.43
2022-12-18T10:55:23.927Z,17.43
2022-12-18T10:58:40.526Z,17.34
2022-12-18T11:01:29.416Z,17.39
2022-12-18T11:04:30.925Z,17.33
2022-12-18T11:07:17.779Z,17.28
2022-12-18T11:10:11.902Z,17.29
2022-12-18T11:13:11.736Z,17.32
2022-12-18T11:16:07.265Z,17.29
2022-12-18T11:18:54.528Z,17.26
2022-12-18T11:21:49.936Z,17.17
2022-12-18T11:24:53.125Z,17.18
2022-12-18T11:28:05.918Z,17.09
2022-12-18T11:31:25.652Z,17.08
2022-12-18T11:34:31.024Z,16.98
2022-12-18T11:37:26.973Z,16.98
2022-12-18T11:40:24.045Z,16.96
2022-12-18T11:43:39.962Z,16.90
2022-12-18T11:46:50.995Z,16.82
2022-12-18T11:49:42.149Z,16.84
2022-12-18T11:52:45.930Z,16.74
2022-12-18T11:55:53.910Z,16.77
2022-12-18T11:59:12.935Z,16.68
2022-12-18T12:02:36.108Z,16.70
2022-12-18T12:05:29.095Z,16.67
2022-12-18T12:08:44.896Z,16.58
2022-12-18T12:11:55.974Z,16.62
2022-12-18T12:15:02.955Z,16.58
2022-12-18T12:18:13.982Z,16.54
2022-12-18T12:21:17.347Z,16.54
2022-12-18T12:24:19.960Z,16.52
2022-12-18T12:27:21.982Z,16.49
2022-12-18T12:30:18.981Z,16.46
2022-12-18T12:33:23.877Z,16.45
2022-12-18T12:36:47.967Z,16.42
2022-12-18T12:39:49.938Z,16.41
2022-12-18T12:43:09.926Z,16.35
2022-12-18T12:46:27.048Z,16.40
2022-12-18T12:49:24.930Z,16.37
2022-12-18T12:52:24.821Z,16.28
2022-12-18T12:55:33.979Z,16.34
2022-12-18T12:58:59.925Z,16.31
2022-12-18T13:02:23.002Z,16.30
2022-12-18T13:05:29.607Z,16.29
2022-12-18T13:08:56.142Z,16.26
2022-12-18T13:12:12.013Z,16.28
2022-12-18T13:15:28.004Z,16.25
2022-12-18T13:18:28.946Z,16.28
2022-12-18T13:21:31.995Z,16.25
2022-12-18T13:24:34.987Z,16.23
2022-12-18T13:28:00.025Z,16.24
2022-12-18T13:30:57.275Z,16.19
2022-12-18T13:37:32.988Z,16.20
2022-12-18T13:40:48.056Z,16.18
2022-12-18T13:43:41.443Z,16.18
2022-12-18T13:46:37.959Z,16.19
2022-12-18T13:49:45.991Z,16.19
2022-12-18T13:52:46.994Z,16.12
2022-12-18T13:55:34.699Z,16.17
2022-12-18T13:58:28.037Z,16.15
2022-12-18T14:01:24.903Z,16.14
2022-12-18T14:04:25.011Z,16.12
2022-12-18T14:07:21.001Z,16.12
2022-12-18T14:10:44.380Z,16.11
2022-12-18T14:13:37.062Z,16.08
2022-12-18T14:16:38.110Z,16.10
2022-12-18T14:19:32.988Z,16.09
2022-12-18T14:22:29.320Z,16.09
2022-12-18T14:25:37.042Z,16.07
2022-12-18T14:28:31.058Z,16.06
2022-12-18T14:31:37.052Z,15.99
2022-12-18T14:34:34.020Z,16.00
2022-12-18T14:37:26.227Z,15.97
2022-12-18T14:40:22.217Z,16.00
2022-12-18T14:43:17.982Z,16.04
2022-12-18T14:46:27.109Z,16.03
2022-12-18T14:49:35.081Z,15.97
2022-12-18T14:52:30.313Z,15.99
2022-12-18T14:55:29.048Z,16.02
2022-12-18T14:58:18.776Z,15.93
2022-12-18T15:01:12.045Z,16.00
2022-12-18T15:04:00.574Z,16.00
2022-12-18T15:07:11.013Z,16.03
2022-12-18T15:10:19.161Z,16.03
2022-12-18T15:13:12.021Z,16.05
2022-12-18T15:16:11.211Z,16.04
2022-12-18T15:18:58.133Z,16.03
2022-12-18T15:21:51.074Z,15.98
2022-12-18T15:24:37.901Z,16.03
2022-12-18T15:27:45.012Z,15.97
2022-12-18T15:30:32.440Z,15.99
2022-12-18T15:33:34.071Z,16.01
2022-12-18T15:36:30.085Z,15.97
2022-12-18T15:39:23.041Z,15.97
2022-12-18T15:42:44.022Z,16.00
2022-12-18T15:45:38.138Z,16.08
2022-12-18T15:48:31.069Z,16.08
2022-12-18T15:51:24.404Z,16.25
2022-12-18T15:54:24.062Z,16.14
2022-12-18T15:57:24.256Z,16.39
2022-12-18T16:00:20.068Z,16.46
2022-12-18T16:03:13.225Z,16.58
2022-12-18T16:06:10.383Z,16.59
2022-12-18T16:09:03.328Z,16.68
2022-12-18T16:11:57.035Z,16.71
2022-12-18T16:14:44.043Z,16.71
2022-12-18T16:17:37.044Z,16.77
2022-12-18T16:20:30.092Z,16.87
2022-12-18T16:23:23.112Z,16.88
2022-12-18T16:26:16.065Z,16.87
2022-12-18T16:29:02.951Z,16.86
2022-12-18T16:31:56.127Z,16.83
2022-12-18T16:34:50.049Z,16.90
2022-12-18T16:37:43.138Z,16.77
2022-12-18T16:40:32.917Z,16.96
2022-12-18T16:43:26.219Z,17.01
2022-12-18T16:46:14.196Z,17.22
2022-12-18T16:49:08.131Z,17.14
2022-12-18T16:52:02.078Z,17.16
2022-12-18T16:54:56.097Z,17.11
2022-12-18T16:57:43.051Z,17.16
2022-12-18T17:00:36.176Z,17.17
2022-12-18T17:03:29.178Z,17.11
2022-12-18T17:06:16.033Z,17.04
2022-12-18T17:09:14.098Z,17.09
2022-12-18T17:12:07.139Z,17.01
2022-12-18T17:15:01.114Z,17.07
2022-12-18T17:17:47.959Z,17.12
2022-12-18T17:20:41.153Z,17.16
2022-12-18T17:23:36.217Z,17.23
2022-12-18T17:26:29.180Z,17.29
2022-12-18T17:29:29.210Z,17.31
2022-12-18T17:32:24.157Z,17.38
2022-12-18T17:35:11.181Z,17.39
2022-12-18T17:38:04.154Z,17.41
2022-12-18T17:40:54.093Z,17.33
2022-12-18T17:43:52.170Z,17.32
2022-12-18T17:46:39.375Z,17.29
2022-12-18T17:49:33.102Z,17.28
2022-12-18T17:52:26.159Z,17.28
2022-12-18T17:55:13.067Z,17.27
2022-12-18T17:58:06.109Z,17.28
2022-12-18T18:00:59.135Z,17.45
2022-12-18T18:03:53.695Z,17.47
2022-12-18T18:06:40.891Z,17.56
2022-12-18T18:09:41.207Z,17.54
2022-12-18T18:12:53.206Z,17.53
2022-12-18T18:15:46.366Z,17.52
2022-12-18T18:18:33.381Z,17.52
2022-12-18T18:21:27.200Z,17.51
2022-12-18T18:24:24.149Z,17.49
2022-12-18T18:27:17.202Z,17.47
2022-12-18T18:30:18.198Z,17.48
2022-12-18T18:33:13.614Z,17.49
2022-12-18T18:36:00.600Z,17.44
2022-12-18T18:38:54.196Z,17.39
2022-12-18T18:41:41.116Z,17.43
2022-12-18T18:44:39.170Z,17.40
2022-12-18T18:47:37.202Z,17.35
2022-12-18T18:50:30.222Z,17.44
2022-12-18T18:53:24.155Z,17.46
2022-12-18T18:59:31.337Z,17.47
2022-12-18T19:02:19.028Z,17.40
2022-12-18T19:05:13.629Z,17.38
2022-12-18T19:08:00.857Z,17.40
2022-12-18T19:10:57.800Z,17.42
2022-12-18T19:13:45.141Z,17.44
2022-12-18T19:16:39.267Z,17.44
2022-12-18T19:19:27.228Z,17.41
2022-12-18T19:22:21.217Z,17.48
2022-12-18T19:25:09.395Z,17.44
2022-12-18T19:28:03.187Z,17.43
2022-12-18T19:30:59.036Z,17.38
2022-12-18T19:33:54.362Z,17.34
2022-12-18T19:36:48.168Z,17.36
2022-12-18T19:39:41.206Z,17.38
2022-12-18T19:42:34.883Z,17.40
2022-12-18T19:45:29.250Z,17.43
2022-12-18T19:48:22.180Z,17.44
2022-12-18T19:51:13.782Z,17.46
2022-12-18T19:54:07.198Z,17.41
2022-12-18T19:57:01.167Z,17.45
2022-12-18T19:59:54.257Z,17.39
2022-12-18T20:02:43.047Z,17.38
2022-12-18T20:05:37.201Z,17.35
2022-12-18T20:08:24.062Z,17.38
2022-12-18T20:11:19.261Z,17.42
2022-12-18T20:14:06.684Z,17.48
2022-12-18T20:17:05.640Z,17.46
2022-12-18T20:19:53.526Z,17.44
2022-12-18T20:22:47.234Z,17.48
2022-12-18T20:25:40.290Z,17.45
2022-12-18T20:29:04.892Z,17.42
2022-12-18T20:35:50.233Z,17.41
2022-12-18T20:38:45.198Z,17.46
2022-12-18T20:41:39.424Z,17.48
2022-12-18T20:44:33.369Z,17.49
2022-12-18T20:47:26.239Z,17.46
2022-12-18T20:50:13.854Z,17.44
2022-12-18T20:53:07.266Z,17.41
2022-12-18T20:55:54.406Z,17.38
2022-12-18T20:58:48.255Z,17.31
2022-12-18T21:01:35.266Z,17.42
2022-12-18T21:04:30.275Z,17.46
2022-12-18T21:07:24.265Z,17.45
2022-12-18T21:10:17.243Z,17.44
2022-12-18T21:13:05.998Z,17.45
2022-12-18T21:16:02.758Z,17.42
2022-12-18T21:18:57.295Z,17.46
2022-12-18T21:21:44.779Z,17.46
2022-12-18T21:24:38.287Z,17.44
2022-12-18T21:27:39.228Z,17.46
2022-12-18T21:30:39.415Z,17.47
2022-12-18T21:33:33.224Z,17.46
2022-12-18T21:36:20.363Z,17.42
2022-12-18T21:39:13.287Z,17.43
2022-12-18T21:42:25.301Z,17.38
2022-12-18T21:45:19.326Z,17.32
2022-12-18T21:48:12.319Z,17.36
2022-12-18T21:51:06.630Z,17.37
2022-12-18T21:53:54.957Z,17.44
2022-12-18T21:56:55.271Z,17.48
2022-12-18T21:59:50.289Z,17.49
2022-12-18T22:02:37.871Z,17.46
2022-12-18T22:05:31.347Z,17.46
2022-12-18T22:08:24.298Z,17.44
2022-12-18T22:11:20.558Z,17.26
2022-12-18T22:14:16.258Z,17.42
2022-12-18T22:17:03.583Z,17.36
2022-12-18T22:19:57.268Z,17.42
2022-12-18T22:22:50.297Z,17.45
2022-12-18T22:25:43.281Z,17.41
2022-12-18T22:29:02.316Z,17.39
2022-12-18T22:31:56.255Z,17.36
2022-12-18T22:34:50.327Z,17.23
2022-12-18T22:37:44.289Z,17.25
2022-12-18T22:40:31.267Z,17.20
2022-12-18T22:43:24.359Z,17.12
2022-12-18T22:46:25.367Z,17.03
2022-12-18T22:49:23.325Z,17.06
2022-12-18T22:52:16.331Z,16.96
2022-12-18T22:55:12.394Z,16.98
2022-12-18T22:58:06.339Z,16.97
2022-12-18T23:00:59.281Z,16.89
2022-12-18T23:03:52.355Z,16.90
2022-12-18T23:06:39.950Z,16.85
2022-12-18T23:09:33.277Z,16.84
2022-12-18T23:12:26.364Z,16.79
2022-12-18T23:15:27.203Z,16.78
2022-12-18T23:18:15.361Z,16.74
2022-12-18T23:21:18.330Z,16.74
2022-12-18T23:24:05.817Z,16.66
2022-12-18T23:26:59.316Z,16.65
2022-12-18T23:29:59.370Z,16.62
2022-12-18T23:32:52.337Z,16.60
2022-12-18T23:35:46.439Z,16.62
2022-12-18T23:38:34.598Z,16.60
2022-12-18T23:41:32.315Z,16.58
2022-12-18T23:44:19.136Z,16.56
2022-12-18T23:47:13.402Z,16.54
2022-12-18T23:50:00.211Z,16.52
2022-12-18T23:52:54.343Z,16.45
2022-12-18T23:55:44.371Z,16.46
2022-12-18T23:58:38.294Z,16.29
